Time;durP1;ratioP1;P1;durP2;ratioP2;P2;SDS_P1;SDS_P2;PMS_P1;PMS_P2;Temp;Humidity;BMP_temperature;BMP_pressure;BME280_temperature;BME280_humidity;BME280_pressure;Samples;Min_cycle;Max_cycle;Signal;HPM_P1;HPM_P2
2022/08/24 00:02:30;;;;;;;6.70;2.90;;;;;;;20.55;83.41;100657.50;8351662;28;20037;-48
2022/08/24 00:06:32;;;;;;;10.07;2.70;;;;;;;20.64;83.47;100672.78;8324980;28;20044;-48
2022/08/24 00:10:33;;;;;;;7.07;2.72;;;;;;;20.68;83.54;100665.84;8325978;28;20119;-51
2022/08/24 00:14:34;;;;;;;7.78;2.35;;;;;;;20.33;85.29;100666.88;8341231;28;20054;-53
2022/08/24 00:18:34;;;;;;;7.63;2.60;;;;;;;20.22;85.96;100661.94;8350613;28;20128;-53
2022/08/24 00:22:35;;;;;;;7.85;2.45;;;;;;;20.22;85.81;100679.25;8348479;28;20038;-53
2022/08/24 00:26:36;;;;;;;10.57;2.47;;;;;;;20.31;85.24;100671.72;8357145;28;20037;-51
2022/08/24 00:30:36;;;;;;;12.60;3.05;;;;;;;20.06;86.40;100673.19;8334072;28;20037;-52
2022/08/24 00:34:37;;;;;;;8.13;2.63;;;;;;;19.71;88.15;100669.47;8329960;28;20094;-50
2022/08/24 00:38:37;;;;;;;7.18;2.60;;;;;;;19.27;91.06;100666.00;8356521;28;20072;-53
2022/08/24 00:42:38;;;;;;;8.68;2.50;;;;;;;19.55;89.38;100679.84;8366461;28;20048;-50
2022/08/24 00:46:44;;;;;;;8.18;2.38;;;;;;;19.97;87.06;100677.94;8358309;28;20049;-52
2022/08/24 00:50:51;;;;;;;7.95;3.00;;;;;;;20.15;85.70;100677.47;8369430;28;20063;-52
2022/08/24 00:54:57;;;;;;;12.27;2.78;;;;;;;20.08;86.47;100682.03;8370450;28;20045;-51
2022/08/24 00:59:03;;;;;;;7.50;2.50;;;;;;;19.82;88.27;100676.31;8348032;28;20037;-53
2022/08/24 01:03:07;;;;;;;8.65;2.50;;;;;;;19.74;88.78;100669.06;8373365;28;20067;-53
2022/08/24 01:07:07;;;;;;;4.80;2.50;;;;;;;19.52;89.70;100662.72;8372899;28;20043;-54
2022/08/24 01:11:14;;;;;;;9.10;2.78;;;;;;;19.37;90.41;100666.56;8371778;28;20291;-53
2022/08/24 01:15:15;;;;;;;9.43;3.28;;;;;;;19.56;89.20;100660.44;8372485;28;20119;-54
2022/08/24 01:19:31;;;;;;;8.85;3.08;;;;;;;19.54;89.38;100661.69;8372488;28;20040;-52
2022/08/24 01:23:41;;;;;;;8.73;2.90;;;;;;;19.34;90.59;100658.72;8366072;28;20564;-53
2022/08/24 01:27:43;;;;;;;9.77;2.55;;;;;;;19.13;91.79;100667.69;8350967;28;20033;-55
2022/08/24 01:31:43;;;;;;;7.70;2.95;;;;;;;19.01;92.87;100666.50;8326277;28;20057;-54
2022/08/24 01:35:43;;;;;;;10.20;3.53;;;;;;;19.10;92.13;100662.63;8350405;28;20049;-53
2022/08/24 01:39:47;;;;;;;6.22;2.75;;;;;;;19.25;91.02;100665.34;8374012;28;20106;-54
2022/08/24 01:43:47;;;;;;;11.47;2.67;;;;;;;19.29;90.79;100667.53;8358095;28;20034;-53
2022/08/24 01:47:48;;;;;;;5.45;3.05;;;;;;;19.17;91.42;100671.78;8352310;28;20035;-54
2022/08/24 01:51:48;;;;;;;13.65;3.75;;;;;;;18.98;92.86;100675.13;8357146;28;20609;-51
2022/08/24 01:55:49;;;;;;;6.45;3.33;;;;;;;19.10;91.93;100670.84;8359066;28;20406;-54
2022/08/24 01:59:51;;;;;;;11.15;2.83;;;;;;;19.15;92.05;100679.31;8375726;28;20025;-51
2022/08/24 02:03:51;;;;;;;7.85;3.53;;;;;;;19.01;92.48;100677.47;8394969;28;20037;-53
2022/08/24 02:07:52;;;;;;;11.00;3.45;;;;;;;19.04;92.19;100681.72;8394200;28;20039;-50
2022/08/24 02:11:53;;;;;;;6.55;3.10;;;;;;;19.05;92.01;100675.19;8369603;28;20140;-52
2022/08/24 02:15:53;;;;;;;9.50;3.42;;;;;;;18.86;92.58;100673.03;8359703;28;20492;-51
2022/08/24 02:19:54;;;;;;;8.33;3.40;;;;;;;18.95;92.10;100680.97;8384808;28;20383;-51
2022/08/24 02:23:54;;;;;;;7.20;3.57;;;;;;;18.76;93.22;100684.28;8364418;28;20354;-51
2022/08/24 02:27:57;;;;;;;9.63;3.58;;;;;;;18.84;92.46;100675.09;8365215;28;20269;-54
2022/08/24 02:31:57;;;;;;;6.30;3.25;;;;;;;18.76;92.43;100687.00;8385027;28;20030;-54
2022/08/24 02:35:58;;;;;;;9.88;3.75;;;;;;;18.82;92.21;100689.00;8360268;28;20060;-54
2022/08/24 02:39:58;;;;;;;10.23;3.13;;;;;;;18.66;92.90;100683.72;8359430;28;20037;-54
2022/08/24 02:43:59;;;;;;;7.50;3.53;;;;;;;18.57;93.76;100684.00;8359203;28;20033;-52
2022/08/24 02:47:59;;;;;;;10.85;3.35;;;;;;;18.43;93.98;100676.63;8358846;28;20124;-53
2022/08/24 02:51:59;;;;;;;8.35;3.50;;;;;;;18.05;95.85;100683.97;8359559;28;20052;-50
2022/08/24 02:56:00;;;;;;;8.10;3.43;;;;;;;18.33;96.10;100681.50;8360466;28;20044;-54
2022/08/24 03:00:00;;;;;;;8.43;3.35;;;;;;;18.42;94.75;100680.41;8363196;28;20342;-52
2022/08/24 03:04:01;;;;;;;5.35;3.75;;;;;;;18.49;94.50;100681.34;8375425;28;20028;-53
2022/08/24 03:08:02;;;;;;;8.30;3.42;;;;;;;18.45;94.37;100675.38;8375268;28;20033;-53
2022/08/24 03:12:03;;;;;;;7.63;3.35;;;;;;;18.47;94.50;100678.78;8350854;28;20053;-49
2022/08/24 03:16:04;;;;;;;5.35;3.05;;;;;;;18.47;94.31;100675.19;8378565;28;20546;-51
2022/08/24 03:20:09;;;;;;;6.80;2.90;;;;;;;18.53;93.55;100671.72;8368106;28;20075;-50
2022/08/24 03:24:09;;;;;;;6.15;3.30;;;;;;;18.36;93.51;100681.13;8373417;28;20048;-52
2022/08/24 03:28:11;;;;;;;8.07;3.35;;;;;;;18.04;96.81;100684.13;8368384;28;20036;-48
2022/08/24 03:32:11;;;;;;;7.78;3.50;;;;;;;18.01;98.25;100674.44;8334533;28;20088;-52
2022/08/24 03:36:12;;;;;;;8.25;3.20;;;;;;;17.99;98.31;100681.97;8345538;28;20703;-52
2022/08/24 03:40:12;;;;;;;8.48;3.35;;;;;;;17.58;99.46;100675.97;8357042;28;20044;-49
2022/08/24 03:44:13;;;;;;;6.47;3.47;;;;;;;17.73;98.72;100680.63;8358591;28;20021;-49
2022/08/24 03:48:13;;;;;;;8.45;3.28;;;;;;;17.79;98.18;100679.91;8358030;28;20381;-51
2022/08/24 03:52:14;;;;;;;9.10;3.33;;;;;;;17.82;98.56;100683.16;8333426;28;20415;-51
2022/08/24 03:56:15;;;;;;;6.80;3.13;;;;;;;17.89;97.83;100678.63;8326492;28;20069;-49
2022/08/24 04:00:16;;;;;;;7.60;3.72;;;;;;;17.77;98.69;100691.03;8354118;28;20047;-51
2022/08/24 04:04:17;;;;;;;13.95;4.00;;;;;;;17.78;99.41;100686.44;8364750;28;20048;-53
2022/08/24 04:08:18;;;;;;;9.18;4.25;;;;;;;17.82;99.29;100694.09;8352633;28;20095;-51
2022/08/24 04:12:18;;;;;;;7.35;3.90;;;;;;;17.83;98.66;100693.03;8373589;28;20482;-51
2022/08/24 04:16:20;;;;;;;7.05;3.80;;;;;;;17.78;98.99;100697.38;8373649;28;20414;-49
2022/08/24 04:20:20;;;;;;;7.95;4.13;;;;;;;17.65;99.97;100692.50;8368861;28;20049;-50
2022/08/24 04:24:22;;;;;;;6.03;3.50;;;;;;;17.80;98.90;100693.41;8357107;28;20040;-53
2022/08/24 04:28:22;;;;;;;5.90;3.70;;;;;;;17.85;98.01;100696.47;8352018;28;20060;-53
2022/08/24 04:32:23;;;;;;;6.97;3.85;;;;;;;17.82;98.43;100696.81;8354522;28;20103;-52
2022/08/24 04:36:23;;;;;;;5.53;3.78;;;;;;;17.66;98.85;100699.69;8338840;28;20495;-49
2022/08/24 04:40:24;;;;;;;5.82;3.60;;;;;;;17.55;99.53;100705.56;8363764;28;20049;-49
2022/08/24 04:44:24;;;;;;;7.85;3.90;;;;;;;17.67;99.17;100705.97;8326595;28;20072;-52
2022/08/24 04:48:25;;;;;;;7.53;4.03;;;;;;;17.57;99.98;100695.31;8349730;28;20072;-48
2022/08/24 04:52:27;;;;;;;9.52;4.13;;;;;;;17.65;98.89;100695.22;8354033;28;20043;-50
2022/08/24 04:56:27;;;;;;;7.82;3.95;;;;;;;17.48;100.00;100697.22;8335845;28;20041;-51
2022/08/24 05:00:28;;;;;;;8.02;4.43;;;;;;;17.63;99.38;100694.56;8354883;28;20044;-52
2022/08/24 05:04:28;;;;;;;5.75;3.88;;;;;;;17.89;98.06;100700.50;8356649;28;20113;-49
2022/08/24 05:08:29;;;;;;;11.38;3.95;;;;;;;17.91;97.20;100706.66;8343776;28;20061;-49
2022/08/24 05:12:30;;;;;;;5.13;3.55;;;;;;;18.20;95.44;100717.69;8341300;28;20055;-48
2022/08/24 05:16:33;;;;;;;7.70;4.28;;;;;;;18.37;95.08;100715.69;8354492;28;20412;-47
2022/08/24 05:20:34;;;;;;;11.32;3.58;;;;;;;18.46;94.74;100720.91;8360094;28;20037;-48
2022/08/24 05:24:35;;;;;;;5.65;3.38;;;;;;;18.53;94.78;100716.38;8358989;28;20538;-49
2022/08/24 05:28:37;;;;;;;8.25;3.78;;;;;;;18.80;93.68;100718.50;8356186;28;20431;-48
2022/08/24 05:32:38;;;;;;;7.95;3.40;;;;;;;18.91;91.97;100720.75;8360514;28;20647;-48
2022/08/24 05:36:40;;;;;;;12.75;4.03;;;;;;;19.08;91.27;100729.63;8356640;28;20045;-48
2022/08/24 05:40:41;;;;;;;7.70;4.22;;;;;;;19.33;89.86;100725.53;8358393;28;20048;-51
2022/08/24 05:44:41;;;;;;;11.52;3.80;;;;;;;19.44;89.94;100728.66;8372461;28;20043;-52
2022/08/24 05:48:42;;;;;;;8.48;3.88;;;;;;;19.52;89.61;100731.28;8345625;28;20632;-50
2022/08/24 05:52:42;;;;;;;18.13;4.60;;;;;;;19.59;89.00;100736.84;8361429;28;20044;-52
2022/08/24 05:56:43;;;;;;;17.75;5.10;;;;;;;19.72;88.75;100747.13;8377523;28;20123;-49
2022/08/24 06:00:44;;;;;;;12.52;4.57;;;;;;;20.13;86.98;100745.50;8386175;28;20103;-51
2022/08/24 06:04:45;;;;;;;18.65;4.50;;;;;;;20.50;85.93;100753.44;8362197;28;20033;-52
2022/08/24 06:08:48;;;;;;;12.15;4.63;;;;;;;20.88;84.31;100750.13;8367641;28;20051;-51
2022/08/24 06:12:48;;;;;;;15.70;4.45;;;;;;;21.06;82.58;100752.38;8354058;28;20624;-48
2022/08/24 06:16:48;;;;;;;19.38;4.55;;;;;;;21.15;83.21;100753.91;8376205;28;20045;-53
2022/08/24 06:20:49;;;;;;;14.63;4.25;;;;;;;21.26;82.48;100759.69;8371148;28;20037;-49
2022/08/24 06:29:10;;;;;;;13.48;3.25;;;;;;;21.84;80.62;100763.78;8353116;28;20071;-53
2022/08/24 06:33:10;;;;;;;17.02;4.60;;;;;;;21.91;79.85;100761.03;8354131;28;20092;-53
2022/08/24 06:37:11;;;;;;;5.65;3.28;;;;;;;22.26;78.59;100766.19;8353061;28;20060;-51
2022/08/24 06:41:11;;;;;;;7.25;3.83;;;;;;;22.35;78.55;100770.44;8359569;28;20039;-52
2022/08/24 06:45:11;;;;;;;6.47;3.78;;;;;;;22.61;77.81;100773.25;8360670;28;20043;-52
2022/08/24 06:49:12;;;;;;;12.02;4.25;;;;;;;22.60;78.14;100777.03;8356933;28;20044;-53
2022/08/24 06:53:14;;;;;;;12.35;4.40;;;;;;;22.68;77.60;100782.34;8347437;28;20390;-52
2022/08/24 06:57:14;;;;;;;15.73;3.92;;;;;;;23.13;75.72;100770.44;8346296;28;20053;-50
2022/08/24 07:01:20;;;;;;;12.30;4.60;;;;;;;23.30;75.53;100783.78;8363051;28;20032;-53
2022/08/24 07:05:21;;;;;;;9.95;4.10;;;;;;;23.75;74.12;100780.00;8348989;28;20080;-51
2022/08/24 07:09:23;;;;;;;14.70;4.63;;;;;;;23.93;73.42;100771.81;8322881;28;20041;-50
2022/08/24 07:13:24;;;;;;;10.18;3.80;;;;;;;24.18;72.30;100781.09;8323866;28;20058;-52
2022/08/24 07:17:24;;;;;;;19.23;3.78;;;;;;;24.30;71.81;100774.59;8341958;28;20052;-48
2022/08/24 07:21:25;;;;;;;9.05;3.28;;;;;;;24.32;71.20;100785.44;8353974;28;20045;-48
2022/08/24 07:25:26;;;;;;;14.23;3.70;;;;;;;24.67;71.30;100787.53;8356870;28;20401;-50
2022/08/24 07:29:26;;;;;;;5.77;3.47;;;;;;;24.96;70.09;100791.53;8358261;28;20430;-48
2022/08/24 07:33:26;;;;;;;12.18;3.35;;;;;;;25.51;68.56;100789.69;8356943;28;20287;-48
2022/08/24 07:37:27;;;;;;;7.00;3.03;;;;;;;25.09;69.00;100787.81;8355167;28;20494;-48
2022/08/24 07:41:28;;;;;;;13.67;3.50;;;;;;;25.15;68.88;100796.00;8356269;28;20272;-49
2022/08/24 07:45:32;;;;;;;12.88;3.65;;;;;;;25.38;68.73;100790.72;8356268;28;20275;-50
2022/08/24 07:49:32;;;;;;;7.13;3.17;;;;;;;25.95;67.42;100797.66;8356132;28;20064;-53
2022/08/24 07:53:34;;;;;;;7.93;2.78;;;;;;;26.32;65.04;100794.56;8355281;28;20048;-53
2022/08/24 07:57:38;;;;;;;12.63;3.08;;;;;;;26.43;64.14;100793.78;8360845;28;20037;-51
2022/08/24 08:01:39;;;;;;;15.85;3.83;;;;;;;26.32;64.82;100805.66;8386698;28;20044;-52
2022/08/24 08:05:39;;;;;;;6.18;3.20;;;;;;;26.61;64.08;100803.94;8386688;28;20115;-50
2022/08/24 08:09:40;;;;;;;10.95;3.17;;;;;;;26.99;64.16;100801.63;8388496;28;20040;-52
2022/08/24 08:13:41;;;;;;;11.82;3.38;;;;;;;27.14;63.05;100820.59;8389933;28;20032;-49
2022/08/24 08:17:41;;;;;;;11.20;3.80;;;;;;;27.21;62.58;100818.53;8389493;28;20073;-51
2022/08/24 08:26:05;;;;;;;14.93;4.40;;;;;;;27.25;61.97;100817.84;8370331;28;20275;-50
2022/08/24 08:30:06;;;;;;;8.20;3.20;;;;;;;27.96;60.97;100814.75;8338849;28;20037;-50
2022/08/24 08:34:08;;;;;;;10.63;3.30;;;;;;;28.23;60.24;100810.25;8322212;28;20037;-51
2022/08/24 08:38:09;;;;;;;14.18;4.15;;;;;;;28.49;59.09;100815.25;8321731;28;20547;-51
2022/08/24 08:42:37;;;;;;;12.20;3.85;;;;;;;28.50;58.88;100806.66;8321039;28;20033;-51
2022/08/24 08:51:35;;;;;;;12.43;3.03;;;;;;;28.60;57.57;100801.25;8408987;27;20389;-51
2022/08/24 08:55:46;;;;;;;11.77;3.10;;;;;;;28.90;56.75;100794.53;8381034;28;20044;-50
2022/08/24 09:00:03;;;;;;;7.75;2.60;;;;;;;29.31;55.26;100797.75;8382927;28;20468;-48
2022/08/24 09:04:27;;;;;;;10.63;3.15;;;;;;;29.94;55.14;100800.84;8382847;28;20044;-48
2022/08/24 09:08:56;;;;;;;5.13;2.92;;;;;;;29.78;53.96;100800.91;8370969;28;20057;-49
2022/08/24 09:13:21;;;;;;;7.97;2.90;;;;;;;29.98;54.16;100799.22;8349545;28;20524;-49
2022/08/24 09:21:59;;;;;;;8.48;3.92;;;;;;;30.61;52.33;100786.53;8404712;27;20468;-48
2022/08/24 09:26:08;;;;;;;12.80;4.45;;;;;;;30.67;52.06;100788.28;8374770;27;20040;-50
2022/08/24 09:30:15;;;;;;;16.58;4.78;;;;;;;30.47;52.25;100790.84;8352213;28;20083;-48
2022/08/24 09:34:27;;;;;;;13.73;4.53;;;;;;;31.29;51.35;100789.38;8350950;28;20456;-47
2022/08/24 09:38:58;;;;;;;17.45;4.97;;;;;;;31.15;51.49;100777.78;8349524;28;20521;-48
2022/08/24 09:43:25;;;;;;;14.07;4.07;;;;;;;32.34;49.79;100781.50;8370594;28;20052;-48
2022/08/24 09:47:47;;;;;;;9.23;4.22;;;;;;;34.23;47.05;100778.69;8378105;28;20028;-49
2022/08/24 09:52:08;;;;;;;14.35;4.20;;;;;;;36.28;44.28;100770.22;8382548;28;20367;-52
2022/08/24 09:56:39;;;;;;;11.65;3.40;;;;;;;36.38;42.54;100778.53;8379761;28;20065;-51
2022/08/24 10:01:19;;;;;;;12.18;3.35;;;;;;;37.36;41.35;100778.31;8370917;28;20652;-51
2022/08/24 10:05:59;;;;;;;10.63;2.90;;;;;;;37.34;40.70;100770.16;8380868;28;20044;-52
2022/08/24 10:10:23;;;;;;;10.13;2.80;;;;;;;36.65;41.58;100767.38;8348922;28;20090;-54
2022/08/24 10:15:03;;;;;;;6.03;2.40;;;;;;;36.80;40.64;100781.25;8349508;28;20087;-52
2022/08/24 10:19:36;;;;;;;6.47;2.10;;;;;;;36.77;40.63;100769.75;8370980;28;20125;-53
2022/08/24 10:24:04;;;;;;;9.57;2.40;;;;;;;37.08;40.06;100763.25;8377811;28;20036;-52
2022/08/24 10:32:39;;;;;;;8.63;2.33;;;;;;;37.56;38.55;100768.59;8287630;28;20468;-54
2022/08/24 10:36:59;;;;;;;8.50;2.60;;;;;;;38.17;37.52;100760.56;8284592;28;20045;-55
2022/08/24 10:41:40;;;;;;;6.35;2.25;;;;;;;37.84;38.01;100761.81;8271981;28;20065;-54
2022/08/24 10:46:20;;;;;;;4.05;2.30;;;;;;;38.45;37.22;100750.84;8282604;28;20046;-54
2022/08/24 10:50:44;;;;;;;6.10;2.30;;;;;;;38.61;36.50;100746.50;8277038;28;20116;-50
2022/08/24 10:54:45;;;;;;;4.22;1.92;;;;;;;38.15;37.09;100754.38;8280744;28;20235;-52
2022/08/24 10:59:10;;;;;;;3.70;1.98;;;;;;;38.05;37.38;100751.75;8282493;28;20042;-50
2022/08/24 11:03:15;;;;;;;3.33;1.80;;;;;;;38.59;36.48;100752.47;8280597;28;20072;-52
2022/08/24 11:07:19;;;;;;;6.57;1.80;;;;;;;40.08;35.17;100737.31;8283088;28;20427;-50
2022/08/24 11:11:30;;;;;;;4.38;1.63;;;;;;;40.18;35.09;100742.66;8283542;28;20053;-52
2022/08/24 11:15:30;;;;;;;4.47;1.92;;;;;;;40.78;34.76;100735.03;8272427;28;20045;-51
2022/08/24 11:19:33;;;;;;;6.57;1.87;;;;;;;40.98;33.96;100730.66;8281183;28;20129;-52
2022/08/24 11:23:35;;;;;;;5.68;1.92;;;;;;;40.13;34.65;100720.16;8281683;28;20274;-52
2022/08/24 11:27:39;;;;;;;4.38;1.80;;;;;;;39.02;35.51;100721.69;8281665;28;20137;-52
2022/08/24 11:31:42;;;;;;;7.85;2.30;;;;;;;40.27;34.91;100720.84;8275949;28;20042;-54
2022/08/24 11:35:42;;;;;;;6.45;2.08;;;;;;;40.45;34.60;100716.84;8249168;28;20394;-53
2022/08/24 11:39:43;;;;;;;4.87;2.00;;;;;;;41.05;33.90;100707.41;8245532;28;20329;-53
2022/08/24 11:44:09;;;;;;;3.93;1.17;;;;;;;39.94;33.93;100705.44;8227517;28;20093;-54
2022/08/24 11:48:49;;;;;;;4.78;1.52;;;;;;;38.61;34.66;100692.78;8256157;28;20039;-51
2022/08/24 11:53:30;;;;;;;5.40;1.80;;;;;;;40.45;34.55;100693.31;8252024;28;20097;-54
2022/08/24 11:57:58;;;;;;;5.70;1.53;;;;;;;36.73;36.91;100679.28;8248537;28;20034;-54
2022/08/24 12:02:07;;;;;;;2.67;1.50;;;;;;;35.67;37.96;100676.41;8255500;28;20042;-54
2022/08/24 12:06:34;;;;;;;4.95;1.90;;;;;;;35.30;38.54;100679.97;8254828;28;20035;-53
2022/08/24 12:11:14;;;;;;;2.67;1.40;;;;;;;35.26;38.01;100669.59;8258784;28;20054;-53
2022/08/24 12:15:25;;;;;;;2.95;1.70;;;;;;;35.77;38.13;100665.03;8257607;28;20117;-50
2022/08/24 12:19:32;;;;;;;4.00;1.73;;;;;;;35.93;38.19;100669.31;8251745;28;20040;-54
2022/08/24 12:23:40;;;;;;;5.00;1.90;;;;;;;34.86;39.36;100664.44;8256776;28;20039;-53
2022/08/24 12:27:41;;;;;;;7.18;2.22;;;;;;;35.23;39.66;100658.97;8256320;28;20034;-52
2022/08/24 12:31:49;;;;;;;4.30;1.60;;;;;;;34.55;39.81;100663.03;8260660;28;20042;-53
2022/08/24 12:35:55;;;;;;;2.17;1.17;;;;;;;34.45;39.22;100655.53;8257658;28;20232;-53
2022/08/24 12:40:23;;;;;;;3.72;1.45;;;;;;;34.65;39.60;100657.31;8260347;28;20034;-53
2022/08/24 12:44:33;;;;;;;4.40;1.75;;;;;;;34.50;39.52;100660.25;8254768;28;20038;-54
2022/08/24 12:48:41;;;;;;;7.82;1.85;;;;;;;34.21;39.97;100657.38;8257124;28;20050;-53
2022/08/24 12:53:21;;;;;;;3.70;1.70;;;;;;;34.65;40.00;100649.72;8258828;28;20093;-53
2022/08/24 13:01:44;;;;;;;6.03;1.50;;;;;;;33.85;40.64;100647.53;8388563;27;20973;-52
2022/08/24 13:05:50;;;;;;;3.92;1.73;;;;;;;34.04;40.45;100651.34;8375756;28;20501;-53
2022/08/24 13:14:25;;;;;;;4.97;1.75;;;;;;;34.19;40.00;100647.56;8321588;27;20930;-52
2022/08/24 13:18:46;;;;;;;7.70;1.60;;;;;;;34.16;38.99;100648.16;8302938;28;20481;-51
2022/08/24 13:23:03;;;;;;;3.97;1.38;;;;;;;34.04;39.36;100644.88;8314401;28;20037;-54
2022/08/24 13:31:30;;;;;;;3.42;1.58;;;;;;;34.20;39.44;100641.66;8387294;27;20393;-51
2022/08/24 13:35:52;;;;;;;4.25;1.58;;;;;;;33.94;40.15;100635.41;8381081;28;20037;-53
2022/08/24 13:40:15;;;;;;;4.68;1.63;;;;;;;33.87;39.67;100643.31;8379094;28;20037;-53
2022/08/24 13:48:55;;;;;;;3.72;1.60;;;;;;;33.44;39.42;100630.06;8399997;27;20405;-53
2022/08/24 13:53:35;;;;;;;5.90;1.42;;;;;;;33.38;39.66;100630.38;8387704;28;20549;-53
2022/08/24 13:57:41;;;;;;;5.00;1.42;;;;;;;33.34;40.00;100618.88;8380551;28;20093;-52
2022/08/24 14:02:06;;;;;;;2.08;1.42;;;;;;;33.83;39.75;100622.56;8375875;28;20040;-50
2022/08/24 14:06:46;;;;;;;4.93;1.50;;;;;;;33.83;40.08;100618.91;8348421;28;20048;-50
2022/08/24 14:11:10;;;;;;;3.65;1.70;;;;;;;34.02;39.22;100624.72;8376959;28;20575;-53
2022/08/24 14:15:35;;;;;;;7.63;1.70;;;;;;;33.45;40.32;100617.72;8379673;28;20559;-54
2022/08/24 14:20:16;;;;;;;4.13;1.70;;;;;;;33.23;40.00;100600.41;8375716;28;20108;-53
2022/08/24 14:24:39;;;;;;;5.72;1.60;;;;;;;33.38;39.87;100603.19;8364373;28;20191;-51
2022/08/24 14:28:42;;;;;;;3.60;1.55;;;;;;;33.42;39.79;100604.28;8371641;28;20044;-52
2022/08/24 14:33:21;;;;;;;4.22;1.90;;;;;;;33.59;39.26;100592.69;8377274;28;20033;-53
2022/08/24 14:37:32;;;;;;;7.25;1.80;;;;;;;33.93;39.71;100597.25;8372023;28;20411;-53
2022/08/24 14:41:56;;;;;;;2.95;1.65;;;;;;;33.77;39.52;100592.84;8374653;28;20033;-54
2022/08/24 14:46:29;;;;;;;3.65;1.70;;;;;;;33.93;39.08;100580.41;8367675;28;20044;-54
2022/08/24 14:50:38;;;;;;;3.65;1.73;;;;;;;34.07;38.64;100582.53;8375375;28;20037;-53
2022/08/24 14:54:54;;;;;;;3.85;1.77;;;;;;;33.88;38.78;100586.06;8377195;28;21485;-52
2022/08/24 14:59:13;;;;;;;5.40;1.60;;;;;;;33.56;39.37;100579.25;8357483;28;20136;-54
2022/08/24 15:03:53;;;;;;;3.92;1.88;;;;;;;33.76;39.47;100577.13;8349150;28;20494;-54
2022/08/24 15:12:26;;;;;;;2.92;1.77;;;;;;;33.73;39.31;100572.09;8312532;27;20408;-53
2022/08/24 15:16:47;;;;;;;6.35;1.95;;;;;;;33.59;39.31;100568.28;8306447;28;20037;-51
2022/08/24 15:21:11;;;;;;;3.80;1.60;;;;;;;33.36;39.58;100566.13;8309255;28;20041;-55
2022/08/24 15:25:40;;;;;;;4.85;1.88;;;;;;;33.57;38.97;100556.50;8305533;28;20120;-55
2022/08/24 15:30:01;;;;;;;7.97;1.83;;;;;;;33.59;39.58;100559.88;8313245;28;20375;-55
2022/08/24 15:34:03;;;;;;;9.38;2.25;;;;;;;33.67;38.68;100556.44;8315403;28;20180;-54
2022/08/24 15:42:36;;;;;;;6.38;2.08;;;;;;;33.49;38.69;100548.72;8376008;27;20382;-53
2022/08/24 15:46:42;;;;;;;4.35;1.90;;;;;;;33.33;38.77;100544.28;8379934;28;20032;-53
2022/08/24 15:50:45;;;;;;;4.80;1.83;;;;;;;33.42;38.73;100539.78;8353327;28;20629;-54
2022/08/24 15:54:59;;;;;;;2.95;1.92;;;;;;;33.42;38.74;100536.97;8350882;28;20043;-53
2022/08/24 15:59:11;;;;;;;4.75;1.63;;;;;;;33.57;38.70;100550.91;8350971;28;20420;-54
2022/08/24 16:03:24;;;;;;;4.68;1.73;;;;;;;33.51;38.40;100545.63;8366166;28;20511;-49
2022/08/24 16:07:32;;;;;;;4.32;1.90;;;;;;;33.54;38.69;100543.06;8383034;28;20300;-51
2022/08/24 16:11:37;;;;;;;3.75;2.30;;;;;;;33.69;38.43;100542.13;8352264;28;20041;-49
2022/08/24 16:15:48;;;;;;;5.40;1.80;;;;;;;33.64;38.33;100543.00;8349677;28;20029;-50
2022/08/24 16:19:54;;;;;;;3.60;1.83;;;;;;;33.35;38.64;100544.84;8350152;28;20456;-50
2022/08/24 16:24:01;;;;;;;4.15;1.90;;;;;;;33.36;38.49;100537.28;8352612;28;20095;-52
2022/08/24 16:32:52;;;;;;;4.35;2.10;;;;;;;33.38;37.95;100535.03;8389718;27;20127;-51
2022/08/24 16:36:52;;;;;;;2.45;1.60;;;;;;;33.59;38.06;100534.63;8378306;28;20062;-49
2022/08/24 16:40:53;;;;;;;4.73;1.73;;;;;;;33.35;38.13;100530.81;8377474;28;20045;-49
2022/08/24 16:44:55;;;;;;;3.60;1.75;;;;;;;33.25;38.22;100530.91;8366735;28;20287;-51
2022/08/24 16:48:55;;;;;;;2.95;1.73;;;;;;;33.25;38.34;100535.66;8383679;28;20045;-50
2022/08/24 16:52:55;;;;;;;3.17;1.90;;;;;;;33.19;38.04;100528.41;8378905;28;20033;-49
2022/08/24 16:57:00;;;;;;;5.87;1.93;;;;;;;33.18;38.04;100541.56;8344927;28;20283;-51
2022/08/24 17:01:01;;;;;;;6.45;1.88;;;;;;;33.13;38.63;100533.19;8339426;28;20286;-51
2022/08/24 17:05:01;;;;;;;5.35;1.80;;;;;;;33.08;38.31;100536.03;8341462;28;20033;-50
2022/08/24 17:09:02;;;;;;;4.97;1.95;;;;;;;33.02;38.55;100539.97;8339573;28;20125;-50
2022/08/24 17:13:02;;;;;;;4.13;1.80;;;;;;;32.93;38.97;100538.91;8328867;28;20069;-52
2022/08/24 17:17:05;;;;;;;5.03;1.77;;;;;;;32.88;38.70;100538.94;8331768;28;20353;-50
2022/08/24 17:21:06;;;;;;;4.07;1.85;;;;;;;32.84;38.77;100542.56;8338657;28;20272;-52
2022/08/24 17:25:06;;;;;;;3.00;1.77;;;;;;;32.77;38.32;100534.44;8341295;28;20450;-51
2022/08/24 17:29:09;;;;;;;3.22;1.63;;;;;;;32.67;38.78;100545.69;8342887;28;20408;-50
2022/08/24 17:33:09;;;;;;;5.13;1.92;;;;;;;32.64;39.17;100540.66;8340060;28;20095;-53
2022/08/24 17:37:10;;;;;;;5.32;1.80;;;;;;;32.58;39.19;100540.94;8341110;28;20040;-52
2022/08/24 17:41:13;;;;;;;5.15;1.75;;;;;;;32.47;39.26;100547.72;8336082;28;20076;-49
2022/08/24 17:45:14;;;;;;;4.22;2.08;;;;;;;32.30;39.66;100555.53;8316356;28;20673;-53
2022/08/24 17:49:14;;;;;;;4.53;2.08;;;;;;;32.18;39.89;100553.03;8321264;28;20686;-53
2022/08/24 17:53:14;;;;;;;2.47;1.60;;;;;;;32.08;40.47;100555.84;8319795;28;20566;-54
2022/08/24 17:57:16;;;;;;;4.87;1.87;;;;;;;32.08;40.15;100555.84;8320550;28;20298;-54
2022/08/24 18:01:17;;;;;;;7.50;2.15;;;;;;;32.01;40.46;100563.69;8320092;28;20048;-53
2022/08/24 18:05:17;;;;;;;5.28;2.15;;;;;;;31.81;40.96;100556.09;8319874;28;20483;-54
2022/08/24 18:09:28;;;;;;;4.53;1.92;;;;;;;31.65;41.26;100554.41;8312565;28;20042;-55
2022/08/24 18:13:28;;;;;;;6.00;1.95;;;;;;;31.44;41.81;100561.06;8320711;28;20030;-55
2022/08/24 18:17:36;;;;;;;6.87;2.17;;;;;;;31.29;42.16;100560.19;8313682;28;20128;-53
2022/08/24 18:21:36;;;;;;;9.80;2.20;;;;;;;31.19;42.31;100560.97;8319634;28;20319;-48
2022/08/24 18:25:42;;;;;;;9.20;2.17;;;;;;;30.85;42.74;100564.44;8315950;28;20077;-52
2022/08/24 18:29:44;;;;;;;7.38;2.13;;;;;;;30.53;43.38;100560.91;8318644;28;20099;-48
2022/08/24 18:33:44;;;;;;;5.25;2.30;;;;;;;30.36;43.97;100561.94;8327609;28;20147;-50
2022/08/24 18:37:45;;;;;;;6.50;2.00;;;;;;;30.08;45.65;100565.03;8318704;28;20140;-53
2022/08/24 18:41:47;;;;;;;6.95;2.72;;;;;;;29.16;47.26;100577.47;8318359;28;21612;-53
2022/08/24 18:45:48;;;;;;;5.55;2.47;;;;;;;29.52;46.08;100575.91;8317160;28;20451;-53
2022/08/24 18:49:49;;;;;;;5.72;2.05;;;;;;;29.62;45.33;100581.63;8319573;28;20038;-51
2022/08/24 18:53:54;;;;;;;7.15;2.50;;;;;;;29.42;46.23;100585.00;8314842;28;20050;-51
2022/08/24 18:57:54;;;;;;;9.43;2.40;;;;;;;28.95;48.27;100588.56;8314461;28;20034;-53
2022/08/24 19:02:55;;;;;;;3.40;2.25;;;;;;;28.04;50.19;100595.53;8315264;28;20052;-51
2022/08/24 19:06:15;;;;;;;4.75;2.28;;;;;;;27.80;52.34;100588.41;8318685;28;20049;-54
2022/08/24 19:10:20;;;;;;;6.15;2.20;;;;;;;28.40;49.57;100591.38;8313788;28;21656;-54
2022/08/24 19:14:20;;;;;;;4.63;2.08;;;;;;;28.18;50.78;100590.47;8308822;28;20270;-51
2022/08/24 19:18:22;;;;;;;7.30;2.33;;;;;;;27.77;51.44;100593.59;8336843;28;20087;-51
2022/08/24 19:22:23;;;;;;;7.15;2.05;;;;;;;27.87;50.89;100593.84;8308298;28;20797;-52
2022/08/24 19:26:24;;;;;;;8.73;2.53;;;;;;;28.05;49.15;100602.75;8306669;28;20370;-51
2022/08/24 19:30:26;;;;;;;2.47;1.90;;;;;;;27.26;51.73;100602.09;8311946;28;20037;-54
2022/08/24 19:34:28;;;;;;;4.75;2.78;;;;;;;27.36;51.47;100599.50;8311859;28;20284;-51
2022/08/24 19:38:29;;;;;;;4.03;2.42;;;;;;;27.32;52.27;100606.66;8314124;28;20041;-54
2022/08/24 19:42:29;;;;;;;4.88;2.78;;;;;;;27.90;49.75;100607.25;8316381;28;20079;-53
2022/08/24 19:46:30;;;;;;;6.00;2.58;;;;;;;28.14;50.09;100614.31;8317378;28;20044;-51
2022/08/24 19:50:31;;;;;;;4.25;2.47;;;;;;;28.03;50.47;100607.72;8317798;28;20072;-49
2022/08/24 19:54:36;;;;;;;4.13;2.85;;;;;;;27.20;52.06;100608.59;8318030;28;20041;-51
2022/08/24 20:03:03;;;;;;;5.43;2.53;;;;;;;27.54;50.95;100602.09;8378637;27;20788;-55
2022/08/24 20:07:03;;;;;;;4.18;2.40;;;;;;;27.55;50.96;100612.09;8340239;28;20035;-55